Time;durP1;ratioP1;P1;durP2;ratioP2;P2;SDS_P1;SDS_P2;PMS_P1;PMS_P2;Temp;Humidity;BMP_temperature;BMP_pressure;BME280_temperature;BME280_humidity;BME280_pressure;Samples;Min_cycle;Max_cycle;Signal;HPM_P1;HPM_P2
2021/12/07 00:02:06;;;;;;;11.80;6.30;;;0.70;99.90;;;;;;6220073;23;20066;-87
2021/12/07 00:05:06;;;;;;;9.32;6.10;;;0.70;99.90;;;;;;6221468;22;20024;-86
2021/12/07 00:07:57;;;;;;;8.45;5.95;;;0.70;99.90;;;;;;6221845;23;20064;-86
2021/12/07 00:10:51;;;;;;;9.25;6.65;;;0.80;99.90;;;;;;6200023;23;20400;-87
2021/12/07 00:13:43;;;;;;;10.05;6.80;;;0.80;99.90;;;;;;6202721;23;20031;-86
2021/12/07 00:16:44;;;;;;;11.85;7.10;;;0.80;99.90;;;;;;6201341;23;20054;-85
2021/12/07 00:19:35;;;;;;;9.98;6.47;;;0.80;99.90;;;;;;6240693;23;20032;-86
2021/12/07 00:22:29;;;;;;;9.60;6.88;;;0.80;99.90;;;;;;6200194;23;20107;-87
2021/12/07 00:25:17;;;;;;;7.50;6.13;;;0.80;99.90;;;;;;6242087;23;20347;-86
2021/12/07 00:28:05;;;;;;;9.80;6.85;;;0.80;99.90;;;;;;6219119;23;20020;-87
2021/12/07 00:31:11;;;;;;;10.05;7.38;;;0.80;99.90;;;;;;6202724;23;20040;-85
2021/12/07 00:37:03;;;;;;;11.45;7.53;;;0.70;99.90;;;;;;6247769;23;20110;-87
2021/12/07 00:39:51;;;;;;;12.30;7.40;;;0.70;99.90;;;;;;6239854;23;20176;-85
2021/12/07 00:42:39;;;;;;;11.50;7.68;;;0.70;99.90;;;;;;6235715;23;20086;-85
2021/12/07 00:46:00;;;;;;;;;;;;;;;;;;;;;
2021/12/07 00:49:00;;;;;;;14.77;8.60;;;0.60;99.90;;;;;;6252547;23;20024;-85
2021/12/07 00:51:55;;;;;;;11.88;8.75;;;0.50;99.90;;;;;;6235089;23;20342;-86
2021/12/07 00:54:54;;;;;;;12.27;8.63;;;0.50;99.90;;;;;;6235524;23;20079;-88
2021/12/07 00:57:51;;;;;;;17.42;9.70;;;0.40;99.90;;;;;;6238435;22;20008;-84
2021/12/07 01:00:55;;;;;;;13.77;9.18;;;0.30;99.90;;;;;;6221345;23;20105;-86
2021/12/07 01:04:24;;;;;;;15.65;9.40;;;0.30;99.90;;;;;;6231544;23;20024;-84
2021/12/07 01:26:50;;;;;;;19.30;10.98;;;0.30;99.90;;;;;;6223453;23;20028;-87
2021/12/07 02:00:33;;;;;;;19.58;11.90;;;0.40;99.90;;;;;;6149756;23;20039;-86
2021/12/07 02:03:25;;;;;;;20.63;12.57;;;0.40;99.90;;;;;;6155176;23;20041;-86
2021/12/07 02:06:18;;;;;;;20.13;12.30;;;0.40;99.90;;;;;;6154550;23;20487;-85
2021/12/07 02:09:15;;;;;;;22.65;13.45;;;0.40;99.90;;;;;;6243522;23;20454;-84
2021/12/07 02:12:07;;;;;;;21.83;11.63;;;0.50;99.90;;;;;;6199226;23;20027;-84
2021/12/07 02:15:04;;;;;;;17.40;11.00;;;0.40;99.90;;;;;;6240860;23;20047;-86
2021/12/07 02:18:05;;;;;;;18.73;10.90;;;0.50;99.90;;;;;;6222419;23;20121;-84
2021/12/07 02:20:56;;;;;;;20.52;11.93;;;0.40;99.90;;;;;;6221990;23;20308;-86
2021/12/07 02:23:55;;;;;;;16.95;10.40;;;0.50;99.90;;;;;;6245400;22;20109;-87
2021/12/07 02:27:00;;;;;;;18.73;11.07;;;0.50;99.90;;;;;;6228161;23;20299;-86
2021/12/07 02:29:53;;;;;;;18.52;9.75;;;0.50;99.90;;;;;;6223600;23;20426;-85
2021/12/07 02:32:55;;;;;;;19.70;10.68;;;0.50;99.90;;;;;;6223050;23;20028;-86
2021/12/07 02:35:55;;;;;;;17.60;10.68;;;0.50;99.90;;;;;;6240778;23;20031;-87
2021/12/07 02:38:43;;;;;;;18.77;11.23;;;0.50;99.90;;;;;;6203802;23;20039;-86
2021/12/07 02:41:45;;;;;;;18.10;10.60;;;0.50;99.90;;;;;;6218427;23;20093;-85
2021/12/07 02:44:56;;;;;;;19.77;11.30;;;0.50;99.90;;;;;;6221756;23;20092;-87
2021/12/07 02:47:53;;;;;;;18.85;10.32;;;0.60;99.90;;;;;;6243284;23;20047;-88
2021/12/07 02:50:43;;;;;;;15.90;9.98;;;0.60;99.90;;;;;;6244082;23;20024;-88
2021/12/07 02:53:37;;;;;;;18.23;10.10;;;0.60;99.90;;;;;;6205117;23;20024;-87
2021/12/07 02:56:31;;;;;;;16.60;10.20;;;0.60;99.90;;;;;;6222611;23;20121;-86
2021/12/07 02:59:26;;;;;;;17.92;10.57;;;0.60;99.90;;;;;;6222690;23;20039;-86
2021/12/07 03:02:56;;;;;;;;;;;;;;;;;;;;;
2021/12/07 03:09:21;;;;;;;21.48;10.63;;;0.70;99.90;;;;;;6221153;23;20034;-85
2021/12/07 03:28:51;;;;;;;;;;;0.70;99.90;;;;;;6245156;22;20132;-85
2021/12/07 03:31:57;;;;;;;11.52;7.07;;;0.70;99.90;;;;;;6241875;23;19915;-86
2021/12/07 03:35:11;;;;;;;11.75;6.93;;;0.70;99.90;;;;;;6202382;23;20439;-84
2021/12/07 03:38:02;;;;;;;12.30;6.68;;;0.70;99.90;;;;;;6218514;23;20427;-86
2021/12/07 03:41:04;;;;;;;11.73;6.97;;;0.70;99.90;;;;;;6219696;23;20028;-86
2021/12/07 03:44:01;;;;;;;10.77;6.85;;;0.70;99.90;;;;;;6222969;23;20493;-84
2021/12/07 03:46:54;;;;;;;8.90;5.93;;;0.80;99.90;;;;;;6187052;23;20383;-86
2021/12/07 03:49:44;;;;;;;7.68;5.10;;;0.80;99.90;;;;;;6240904;23;20089;-85
2021/12/07 03:52:47;;;;;;;6.55;4.50;;;0.90;99.90;;;;;;6201280;23;20410;-88
2021/12/07 03:56:16;;;;;;;;;;;;;;;;;;;;;
2021/12/07 03:59:21;;;;;;;4.88;3.83;;;1.00;99.90;;;;;;6241521;23;20016;-87
2021/12/07 04:02:26;;;;;;;4.40;3.42;;;1.10;99.90;;;;;;6206338;23;20426;-86
2021/12/07 04:05:56;;;;;;;5.47;3.45;;;1.20;99.90;;;;;;6226760;22;20107;-84
2021/12/07 04:09:17;;;;;;;5.05;3.30;;;1.20;99.90;;;;;;6200417;23;20039;-85
2021/12/07 04:12:16;;;;;;;5.60;3.40;;;1.20;99.90;;;;;;6222628;23;20024;-87
2021/12/07 04:15:30;;;;;;;;;;;;;;;;;;;;;
2021/12/07 04:18:25;;;;;;;5.45;3.10;;;1.20;99.90;;;;;;6241367;23;20431;-86
2021/12/07 04:21:13;;;;;;;6.20;2.95;;;1.10;99.90;;;;;;6219056;23;20033;-84
2021/12/07 04:24:15;;;;;;;3.28;2.40;;;1.10;99.90;;;;;;6243428;23;20364;-88
2021/12/07 04:27:10;;;;;;;2.33;2.13;;;1.10;99.90;;;;;;6218196;23;20060;-86
2021/12/07 04:30:45;;;;;;;2.83;2.40;;;1.10;99.90;;;;;;6219882;23;20394;-86
2021/12/07 04:33:44;;;;;;;4.68;2.20;;;1.20;99.90;;;;;;6202870;23;20055;-88
2021/12/07 04:37:01;;;;;;;3.33;2.10;;;1.20;99.90;;;;;;6220584;23;20038;-86
2021/12/07 04:40:23;;;;;;;2.33;1.70;;;1.20;99.90;;;;;;6204068;23;20047;-87
2021/12/07 04:43:40;;;;;;;3.05;1.88;;;1.30;99.90;;;;;;6059890;23;20029;-85
2021/12/07 04:47:13;;;;;;;3.55;1.83;;;1.20;99.90;;;;;;6127295;23;20037;-85
2021/12/07 04:50:39;;;;;;;7.80;2.22;;;1.10;99.90;;;;;;6128791;23;20037;-86
2021/12/07 05:00:40;;;;;;;5.97;2.10;;;1.40;99.90;;;;;;6178972;23;20025;-85
2021/12/07 05:03:46;;;;;;;3.10;2.03;;;1.30;99.90;;;;;;6179683;23;20115;-86
2021/12/07 05:06:40;;;;;;;6.57;2.78;;;1.30;99.90;;;;;;6159604;23;20025;-85
2021/12/07 05:12:56;;;;;;;6.60;2.10;;;1.20;99.90;;;;;;6161366;23;20051;-87
2021/12/07 05:16:08;;;;;;;2.63;1.92;;;1.20;99.90;;;;;;6178293;23;20293;-87
2021/12/07 06:03:53;;;;;;;5.80;3.50;;;0.80;99.90;;;;;;6093637;23;20050;-86
2021/12/07 06:06:47;;;;;;;10.82;3.58;;;0.80;99.90;;;;;;6091281;23;20472;-84
2021/12/07 06:09:37;;;;;;;10.80;3.35;;;0.80;99.90;;;;;;6052351;23;20037;-85
2021/12/07 06:12:26;;;;;;;9.38;3.20;;;0.90;99.90;;;;;;6213020;23;20423;-86
2021/12/07 06:15:18;;;;;;;7.28;3.53;;;0.80;99.90;;;;;;6211145;23;20451;-85
2021/12/07 06:18:06;;;;;;;9.15;3.63;;;0.80;99.90;;;;;;6189486;23;20028;-82
2021/12/07 06:20:53;;;;;;;11.02;4.10;;;0.80;99.90;;;;;;6190072;23;20024;-83
2021/12/07 06:23:41;;;;;;;8.77;4.00;;;0.80;99.90;;;;;;6187360;23;20031;-83
2021/12/07 06:26:33;;;;;;;12.18;6.82;;;0.90;99.90;;;;;;6189655;23;20110;-84
2021/12/07 06:29:24;;;;;;;14.73;6.38;;;0.90;99.90;;;;;;6211696;23;20040;-85
2021/12/07 06:32:13;;;;;;;16.35;6.60;;;0.80;99.90;;;;;;6189765;23;20028;-85
2021/12/07 06:35:01;;;;;;;10.60;5.72;;;0.80;99.90;;;;;;6156501;23;20036;-83
2021/12/07 06:37:49;;;;;;;10.98;6.22;;;0.70;99.90;;;;;;6172466;23;20087;-84
2021/12/07 06:41:13;;;;;;;12.02;4.95;;;0.50;99.90;;;;;;6209423;23;20024;-86
2021/12/07 06:44:59;;;;;;;10.57;5.00;;;0.50;99.90;;;;;;6050310;23;20031;-87
2021/12/07 06:52:06;;;;;;;22.63;7.63;;;0.70;99.90;;;;;;6148743;23;20405;-88
2021/12/07 07:08:37;;;;;;;15.43;7.07;;;0.90;99.90;;;;;;5823704;24;20077;-85
2021/12/07 07:11:38;;;;;;;;;;;;;;;;;;;;;
2021/12/07 07:14:51;;;;;;;15.68;7.65;;;1.10;99.90;;;;;;6039180;23;20024;-87
2021/12/07 07:18:01;;;;;;;12.13;7.40;;;1.10;99.90;;;;;;6224139;23;20024;-87
2021/12/07 07:21:18;;;;;;;15.20;5.70;;;1.20;99.90;;;;;;6204905;23;20024;-86
2021/12/07 09:10:08;;;;;;;7.00;2.33;;;3.80;99.90;;;;;;6069612;23;20050;-89
2021/12/07 09:13:13;;;;;;;;;;;;;;;;;;;;;
2021/12/07 09:33:19;;;;;;;4.07;1.52;;;7.10;99.90;;;;;;6173880;23;20036;-89
2021/12/07 09:40:29;;;;;;;;;;;;;;;;;;;;;
2021/12/07 09:44:24;;;;;;;;;;;;;;;;;;;;;
2021/12/07 10:07:59;;;;;;;7.38;1.92;;;8.80;99.90;;;;;;5905319;24;20120;-89
2021/12/07 10:11:21;;;;;;;8.05;1.95;;;9.40;98.10;;;;;;5907769;24;20033;-86
2021/12/07 10:15:09;;;;;;;;;;;;;;;;;;;;;
2021/12/07 11:00:21;;;;;;;;;;;;;;;;;;;;;
2021/12/07 11:04:21;;;;;;;;;;;;;;;;;;;;;
2021/12/07 11:47:35;;;;;;;;;;;;;;;;;;;;;
2021/12/07 11:50:51;;;;;;;;;;;;;;;;;;;;;
2021/12/07 12:15:57;;;;;;;;;;;;;;;;;;;;;
2021/12/07 12:19:11;;;;;;;4.65;1.58;;;12.40;66.10;;;;;;5971854;23;20047;-86
2021/12/07 13:57:50;;;;;;;;;;;10.60;69.60;;;;;;6206325;22;20300;-88
2021/12/07 14:21:10;;;;;;;;;;;;;;;;;;;;;
2021/12/07 14:35:05;;;;;;;4.75;2.00;;;10.50;65.80;;;;;;6193957;22;20328;-87
2021/12/07 14:38:47;;;;;;;;;;;;;;;;;;;;;
2021/12/07 14:42:01;;;;;;;7.82;2.03;;;10.20;65.40;;;;;;6182093;23;20095;-87
2021/12/07 14:45:42;;;;;;;6.00;1.65;;;9.70;67.30;;;;;;6185906;23;20020;-86
2021/12/07 14:57:09;;;;;;;8.10;1.70;;;7.20;77.30;;;;;;6126478;23;20035;-85
2021/12/07 15:12:55;;;;;;;6.82;2.08;;;4.30;93.40;;;;;;5977487;24;20042;-87
2021/12/07 15:15:45;;;;;;;9.20;2.60;;;3.80;99.10;;;;;;5957128;24;20092;-86
2021/12/07 15:19:36;;;;;;;;;;;;;;;;;;;;;
2021/12/07 15:31:32;;;;;;;6.90;2.20;;;2.60;99.90;;;;;;6035748;23;20174;-87
2021/12/07 15:34:57;;;;;;;6.97;2.33;;;2.30;99.90;;;;;;6116365;23;20028;-86
2021/12/07 15:37:57;;;;;;;6.85;2.50;;;2.20;99.90;;;;;;6141950;23;20025;-87
2021/12/07 15:40:58;;;;;;;10.20;2.85;;;2.00;99.90;;;;;;6183959;23;20416;-89
2021/12/07 15:43:57;;;;;;;10.90;3.10;;;1.70;99.90;;;;;;6180483;23;20025;-80
2021/12/07 15:46:55;;;;;;;9.85;3.90;;;1.60;99.90;;;;;;6160042;23;20160;-83
2021/12/07 15:49:53;;;;;;;9.70;4.50;;;1.50;99.90;;;;;;6160037;23;20025;-82
2021/12/07 15:52:48;;;;;;;16.15;5.45;;;1.30;99.90;;;;;;6141196;23;20033;-81
2021/12/07 15:55:44;;;;;;;12.85;4.78;;;1.20;99.90;;;;;;6159504;23;20126;-82
2021/12/07 15:58:48;;;;;;;15.25;5.57;;;1.00;99.90;;;;;;6119295;23;20039;-82
2021/12/07 16:01:47;;;;;;;12.63;4.80;;;0.90;99.90;;;;;;6097701;23;20021;-80
2021/12/07 16:04:44;;;;;;;13.50;4.22;;;0.80;99.90;;;;;;6099824;23;20030;-82
2021/12/07 16:07:40;;;;;;;14.30;4.28;;;0.80;99.90;;;;;;6104137;23;20413;-78
2021/12/07 16:10:27;;;;;;;14.63;4.55;;;0.90;99.90;;;;;;6082672;23;20081;-79
2021/12/07 16:13:31;;;;;;;13.30;4.95;;;1.00;99.90;;;;;;6107674;23;20412;-80
2021/12/07 16:16:21;;;;;;;14.30;5.10;;;1.00;99.90;;;;;;6103470;23;20568;-79
2021/12/07 16:19:11;;;;;;;16.05;4.47;;;0.90;99.90;;;;;;6103953;23;20437;-79
2021/12/07 16:21:58;;;;;;;12.65;4.10;;;0.80;99.90;;;;;;6102088;23;20727;-80
2021/12/07 16:24:46;;;;;;;13.80;4.30;;;0.90;99.90;;;;;;6119387;23;20033;-78
2021/12/07 16:27:35;;;;;;;23.00;6.53;;;1.00;99.90;;;;;;6116579;23;20032;-81
2021/12/07 16:30:22;;;;;;;20.08;6.68;;;0.90;99.90;;;;;;6181822;23;20108;-80
2021/12/07 16:33:10;;;;;;;17.63;6.18;;;0.90;99.90;;;;;;6188534;23;20040;-80
2021/12/07 16:35:57;;;;;;;10.88;5.78;;;0.80;99.90;;;;;;6188291;23;20131;-80
2021/12/07 16:38:45;;;;;;;15.23;6.82;;;0.70;99.90;;;;;;6189204;23;20025;-79
2021/12/07 16:41:33;;;;;;;14.30;6.57;;;0.70;99.90;;;;;;6187881;23;20033;-79
2021/12/07 16:44:20;;;;;;;22.60;8.20;;;0.70;99.90;;;;;;6168818;23;20028;-79
2021/12/07 16:47:08;;;;;;;13.82;6.57;;;0.70;99.90;;;;;;6208754;23;20025;-80
2021/12/07 16:49:55;;;;;;;16.77;6.15;;;0.70;99.90;;;;;;6188648;23;20039;-79
2021/12/07 16:52:45;;;;;;;14.98;6.53;;;0.50;99.90;;;;;;6187905;23;20158;-80
2021/12/07 16:55:34;;;;;;;18.10;6.50;;;0.50;99.90;;;;;;6211020;23;20090;-80
2021/12/07 16:58:22;;;;;;;16.77;7.78;;;0.40;99.90;;;;;;6188071;23;20608;-79
2021/12/07 17:01:13;;;;;;;20.50;8.00;;;0.40;99.90;;;;;;6191063;23;20028;-79
2021/12/07 17:04:03;;;;;;;13.60;6.30;;;0.40;99.90;;;;;;6190407;23;20412;-81
2021/12/07 17:06:51;;;;;;;12.27;6.18;;;0.30;99.90;;;;;;6212276;23;20044;-81
2021/12/07 17:09:39;;;;;;;13.50;4.85;;;0.20;99.90;;;;;;6191375;23;20088;-81
2021/12/07 17:12:26;;;;;;;13.63;5.53;;;0.20;99.90;;;;;;6211771;23;20027;-84
2021/12/07 17:15:15;;;;;;;13.32;5.50;;;0.20;99.90;;;;;;6169900;23;20029;-82
2021/12/07 17:18:04;;;;;;;15.70;6.47;;;0.20;99.90;;;;;;6212431;23;20046;-81
2021/12/07 17:20:55;;;;;;;18.00;5.82;;;0.30;99.90;;;;;;6188803;23;20321;-82
2021/12/07 17:23:42;;;;;;;15.77;6.72;;;0.30;99.90;;;;;;6166155;23;20501;-81
2021/12/07 17:26:29;;;;;;;25.17;7.25;;;0.50;99.90;;;;;;6187650;23;20043;-82
2021/12/07 17:29:20;;;;;;;12.80;6.43;;;0.40;99.90;;;;;;6141219;23;20029;-80
2021/12/07 17:32:08;;;;;;;13.27;6.40;;;0.50;99.90;;;;;;6160173;23;20032;-83
2021/12/07 17:35:02;;;;;;;16.92;6.30;;;0.40;99.90;;;;;;6181241;23;20033;-81
2021/12/07 17:37:55;;;;;;;23.65;6.90;;;0.40;99.90;;;;;;6161149;23;20025;-81
2021/12/07 17:40:43;;;;;;;18.92;7.65;;;0.40;99.90;;;;;;6183882;23;20144;-81
2021/12/07 17:43:35;;;;;;;16.58;5.30;;;0.30;99.90;;;;;;6184475;23;20021;-81
2021/12/07 17:46:22;;;;;;;14.27;5.57;;;0.30;99.90;;;;;;6141488;23;20040;-80
2021/12/07 17:49:13;;;;;;;10.15;5.32;;;0.20;99.90;;;;;;6181902;23;20025;-81
2021/12/07 17:52:05;;;;;;;11.65;4.32;;;0.20;99.90;;;;;;6161579;23;20025;-79
2021/12/07 17:54:54;;;;;;;8.10;3.60;;;0.20;99.90;;;;;;6161655;23;20080;-79
2021/12/07 17:57:44;;;;;;;12.27;4.20;;;0.30;99.90;;;;;;6140187;23;20085;-81
2021/12/07 18:00:37;;;;;;;7.63;3.40;;;0.40;99.90;;;;;;6159934;23;20039;-80
2021/12/07 18:03:29;;;;;;;9.20;3.83;;;0.40;99.90;;;;;;6161551;23;20367;-81
2021/12/07 18:06:16;;;;;;;13.93;6.22;;;0.40;99.90;;;;;;6143651;23;20044;-81
2021/12/07 18:09:07;;;;;;;19.48;6.80;;;0.20;99.90;;;;;;6179373;23;20049;-81
2021/12/07 18:11:55;;;;;;;16.27;5.75;;;0.10;99.90;;;;;;6159967;23;20024;-81
2021/12/07 18:14:42;;;;;;;19.15;7.95;;;0.10;99.90;;;;;;6160027;23;20039;-79
2021/12/07 18:17:29;;;;;;;13.18;7.10;;;0.00;99.90;;;;;;6158919;23;20029;-81
2021/12/07 18:20:25;;;;;;;14.77;7.28;;;-0.10;99.90;;;;;;6180277;23;20096;-80
2021/12/07 18:23:18;;;;;;;12.73;7.28;;;-0.10;99.90;;;;;;6179883;23;20051;-80
2021/12/07 18:26:05;;;;;;;22.73;7.35;;;-0.20;99.90;;;;;;6180004;23;20036;-81
2021/12/07 18:28:55;;;;;;;16.38;6.88;;;-0.20;99.90;;;;;;6159030;23;20025;-80
2021/12/07 18:31:44;;;;;;;10.13;6.20;;;-0.20;99.90;;;;;;6181051;23;20107;-80
2021/12/07 18:34:34;;;;;;;17.50;6.35;;;-0.30;99.90;;;;;;6139192;23;20029;-80
2021/12/07 18:37:23;;;;;;;18.38;8.27;;;-0.40;99.90;;;;;;6120627;23;20028;-83
2021/12/07 18:40:16;;;;;;;19.48;9.18;;;-0.50;99.90;;;;;;6159900;23;20472;-81
2021/12/07 18:43:07;;;;;;;20.70;10.18;;;-0.50;99.90;;;;;;6179800;23;20056;-81
2021/12/07 18:45:57;;;;;;;19.73;8.23;;;-0.50;99.90;;;;;;6139591;23;20440;-81
2021/12/07 18:48:44;;;;;;;18.35;9.73;;;-0.50;99.90;;;;;;6159636;23;20048;-82
2021/12/07 18:51:34;;;;;;;23.88;8.30;;;-0.50;99.90;;;;;;6139474;23;20128;-80
2021/12/07 18:54:21;;;;;;;20.10;9.02;;;-0.40;99.90;;;;;;6139128;23;20040;-80
2021/12/07 18:57:11;;;;;;;17.30;9.35;;;-0.40;99.90;;;;;;6160211;23;20718;-79
2021/12/07 19:00:00;;;;;;;16.67;8.82;;;-0.30;99.90;;;;;;6137518;23;20029;-80
2021/12/07 19:02:48;;;;;;;21.58;9.13;;;-0.30;99.90;;;;;;6158941;23;20025;-79
2021/12/07 19:05:42;;;;;;;13.82;6.70;;;-0.30;99.90;;;;;;6177961;23;20021;-79
2021/12/07 19:08:29;;;;;;;14.13;6.75;;;-0.20;99.90;;;;;;6158682;23;20029;-81
2021/12/07 19:11:18;;;;;;;15.93;6.30;;;-0.20;99.90;;;;;;6159152;23;20032;-81
2021/12/07 19:14:10;;;;;;;21.25;10.32;;;-0.20;99.90;;;;;;6118022;23;20029;-81
2021/12/07 19:17:00;;;;;;;26.42;11.77;;;-0.10;99.90;;;;;;6160405;23;20672;-82
2021/12/07 19:19:52;;;;;;;20.80;8.90;;;-0.10;99.90;;;;;;6180459;23;20033;-81
2021/12/07 19:22:40;;;;;;;19.90;7.97;;;-0.10;99.90;;;;;;6158879;23;20043;-80
2021/12/07 19:25:27;;;;;;;13.43;6.18;;;-0.10;99.90;;;;;;6159428;23;20116;-81
2021/12/07 19:28:16;;;;;;;19.65;8.00;;;0.10;99.90;;;;;;6173404;23;20026;-82
2021/12/07 19:31:06;;;;;;;17.27;8.25;;;0.10;99.90;;;;;;6181356;23;20075;-80
2021/12/07 19:33:54;;;;;;;17.90;8.18;;;0.10;99.90;;;;;;6180313;23;20024;-78
2021/12/07 19:36:42;;;;;;;18.10;8.18;;;0.10;99.90;;;;;;6181935;23;20029;-80
2021/12/07 19:39:34;;;;;;;20.63;8.38;;;0.00;99.90;;;;;;6141169;23;20481;-79
2021/12/07 19:42:23;;;;;;;23.70;8.90;;;-0.10;99.90;;;;;;6159841;23;20052;-80
2021/12/07 19:45:14;;;;;;;19.25;8.65;;;-0.20;99.90;;;;;;6160352;23;20400;-81
2021/12/07 19:48:05;;;;;;;21.13;8.65;;;-0.30;99.90;;;;;;6180834;23;20080;-80
2021/12/07 19:51:05;;;;;;;22.63;8.30;;;-0.40;99.90;;;;;;6178469;23;20020;-80
2021/12/07 19:54:04;;;;;;;18.35;8.60;;;-0.50;99.90;;;;;;6178538;23;20029;-80
2021/12/07 19:56:56;;;;;;;18.35;8.57;;;-0.70;99.90;;;;;;6178963;23;20024;-80
2021/12/07 19:59:45;;;;;;;14.32;6.72;;;-0.70;99.90;;;;;;6181751;23;20029;-80
2021/12/07 20:02:34;;;;;;;16.95;8.90;;;-0.80;99.90;;;;;;6179530;23;20025;-82
2021/12/07 20:05:22;;;;;;;13.18;7.53;;;-0.80;99.90;;;;;;6160706;23;20072;-83
2021/12/07 20:08:11;;;;;;;15.40;7.22;;;-0.90;99.90;;;;;;6161434;23;20040;-82
2021/12/07 20:11:00;;;;;;;16.13;7.25;;;-0.80;99.90;;;;;;6180968;23;20032;-81
2021/12/07 20:13:48;;;;;;;14.93;8.15;;;-0.80;99.90;;;;;;6162087;23;20040;-82
2021/12/07 20:16:39;;;;;;;19.48;8.95;;;-0.80;99.90;;;;;;6182411;23;20029;-82
2021/12/07 20:19:27;;;;;;;16.73;8.68;;;-0.90;99.90;;;;;;6182510;23;20100;-81
2021/12/07 20:22:16;;;;;;;25.77;9.35;;;-0.90;99.90;;;;;;6182492;23;20396;-82
2021/12/07 20:25:05;;;;;;;21.13;8.45;;;-0.90;99.90;;;;;;6181364;23;20025;-82
2021/12/07 20:27:53;;;;;;;21.90;9.82;;;-0.80;99.90;;;;;;6181038;23;20039;-79
2021/12/07 20:30:43;;;;;;;21.02;11.30;;;-0.70;99.90;;;;;;6139796;23;20025;-81
2021/12/07 20:33:31;;;;;;;19.15;8.27;;;-0.80;99.90;;;;;;6139877;23;20025;-81
2021/12/07 20:36:19;;;;;;;23.83;13.20;;;-0.70;99.90;;;;;;6159914;23;20025;-80
2021/12/07 20:39:12;;;;;;;18.27;9.13;;;-0.70;99.90;;;;;;6141540;23;20025;-80
2021/12/07 20:42:01;;;;;;;13.32;7.20;;;-0.60;99.90;;;;;;6158808;23;20043;-80
2021/12/07 20:44:50;;;;;;;16.00;7.03;;;-0.60;99.90;;;;;;6160252;23;20033;-82
2021/12/07 20:47:37;;;;;;;14.20;7.60;;;-0.60;99.90;;;;;;6180114;23;20048;-81
2021/12/07 20:50:27;;;;;;;14.07;6.28;;;-0.50;99.90;;;;;;6160387;23;20028;-81
2021/12/07 20:53:18;;;;;;;15.05;5.93;;;-0.40;99.90;;;;;;6159485;23;20025;-80
2021/12/07 20:56:11;;;;;;;12.93;4.90;;;-0.30;99.90;;;;;;6160233;23;20025;-83
2021/12/07 20:59:16;;;;;;;7.97;4.90;;;-0.10;99.90;;;;;;6162520;23;20086;-81
2021/12/07 21:02:04;;;;;;;12.93;5.00;;;0.10;99.90;;;;;;6159359;23;20044;-82
2021/12/07 21:04:51;;;;;;;16.15;5.18;;;0.10;99.90;;;;;;6180990;23;20044;-79
2021/12/07 21:07:39;;;;;;;9.23;4.82;;;0.00;99.90;;;;;;6160717;23;20032;-80
2021/12/07 21:10:27;;;;;;;13.13;5.90;;;-0.10;99.90;;;;;;6181016;23;20032;-80
2021/12/07 21:13:15;;;;;;;14.18;4.85;;;-0.10;99.90;;;;;;6140203;23;20040;-80
2021/12/07 21:16:06;;;;;;;7.05;4.15;;;-0.20;99.90;;;;;;6160465;23;20336;-80
2021/12/07 21:18:57;;;;;;;5.78;4.20;;;-0.20;99.90;;;;;;6181570;23;20037;-79
2021/12/07 21:21:44;;;;;;;12.63;4.18;;;-0.10;99.90;;;;;;6139932;23;20033;-80
2021/12/07 21:24:31;;;;;;;14.05;5.10;;;0.00;99.90;;;;;;6159284;23;20423;-82
2021/12/07 21:27:22;;;;;;;9.80;4.47;;;0.10;99.90;;;;;;6171970;23;20032;-80
2021/12/07 21:30:15;;;;;;;8.43;3.83;;;0.10;99.90;;;;;;6170808;23;20499;-81
2021/12/07 21:33:03;;;;;;;6.47;4.00;;;0.20;99.90;;;;;;6211979;23;20035;-81
2021/12/07 21:35:51;;;;;;;8.25;3.88;;;0.20;99.90;;;;;;6212249;23;20446;-80
2021/12/07 21:38:39;;;;;;;10.20;4.90;;;0.20;99.90;;;;;;6170034;23;20384;-81
2021/12/07 21:41:30;;;;;;;8.18;4.03;;;0.20;99.90;;;;;;6212518;23;20024;-78
2021/12/07 21:44:18;;;;;;;10.38;4.50;;;0.20;99.90;;;;;;6190271;23;20024;-80
2021/12/07 21:47:07;;;;;;;6.18;3.25;;;0.20;99.90;;;;;;6172669;23;20024;-80
2021/12/07 21:49:55;;;;;;;9.82;3.42;;;0.10;99.90;;;;;;6192288;23;20367;-80
2021/12/07 21:52:44;;;;;;;8.57;3.30;;;0.10;99.90;;;;;;6191339;23;20024;-81
2021/12/07 21:55:31;;;;;;;7.15;3.38;;;0.10;99.90;;;;;;6214224;23;20404;-80
2021/12/07 21:58:19;;;;;;;5.30;3.25;;;0.10;99.90;;;;;;6192974;23;20032;-81
2021/12/07 22:01:09;;;;;;;14.00;4.22;;;0.10;99.90;;;;;;6190984;23;20039;-81
2021/12/07 22:03:57;;;;;;;7.90;3.95;;;0.10;99.90;;;;;;6191251;23;20028;-82
2021/12/07 22:06:45;;;;;;;4.55;3.17;;;0.10;99.90;;;;;;6172299;23;20340;-81
2021/12/07 22:09:33;;;;;;;10.45;4.18;;;0.00;99.90;;;;;;6193207;23;20024;-82
2021/12/07 22:12:22;;;;;;;8.68;4.18;;;-0.10;99.90;;;;;;6212469;23;20029;-82
2021/12/07 22:15:14;;;;;;;9.07;3.22;;;-0.10;99.90;;;;;;6192115;23;20139;-80
2021/12/07 22:18:03;;;;;;;6.97;3.45;;;-0.20;99.90;;;;;;6214789;23;20021;-80
2021/12/07 22:20:50;;;;;;;8.55;3.25;;;-0.10;99.90;;;;;;6192501;23;20039;-80
2021/12/07 22:23:38;;;;;;;7.85;3.80;;;0.00;99.90;;;;;;6191526;23;20032;-79
2021/12/07 22:26:30;;;;;;;6.43;3.38;;;0.10;99.90;;;;;;6187589;23;20336;-81
2021/12/07 22:29:23;;;;;;;7.63;2.90;;;0.10;99.90;;;;;;6140920;23;20036;-81
2021/12/07 22:32:12;;;;;;;7.10;3.20;;;0.10;99.90;;;;;;6123570;23;20412;-81
2021/12/07 22:35:01;;;;;;;6.53;3.30;;;0.10;99.90;;;;;;6182170;23;20033;-82
2021/12/07 22:37:49;;;;;;;6.45;3.30;;;0.20;99.90;;;;;;6141302;23;20111;-80
2021/12/07 22:40:41;;;;;;;9.35;3.40;;;0.30;99.90;;;;;;6161799;23;20036;-81
2021/12/07 22:43:34;;;;;;;9.93;3.38;;;0.30;99.90;;;;;;6182021;23;20028;-81
2021/12/07 22:46:22;;;;;;;6.70;3.67;;;0.30;99.90;;;;;;6162097;23;20029;-80
2021/12/07 22:49:10;;;;;;;5.97;3.30;;;0.30;99.90;;;;;;6182717;23;20025;-81
2021/12/07 22:51:58;;;;;;;7.63;3.50;;;0.30;99.90;;;;;;6162427;23;20021;-83
2021/12/07 22:54:45;;;;;;;5.25;3.08;;;0.30;99.90;;;;;;6161749;23;20035;-80
2021/12/07 22:57:36;;;;;;;6.75;3.40;;;0.40;99.90;;;;;;6180498;23;20029;-81
2021/12/07 23:00:29;;;;;;;7.85;3.50;;;0.40;99.90;;;;;;6161317;23;20444;-81
2021/12/07 23:03:16;;;;;;;;;;;0.50;99.90;;;;;;6161535;23;20029;-79
2021/12/07 23:06:06;;;;;;;6.22;2.90;;;0.50;99.90;;;;;;6161348;23;19990;-80
2021/12/07 23:08:54;;;;;;;6.05;3.13;;;0.40;99.90;;;;;;6181034;23;20025;-80
2021/12/07 23:11:45;;;;;;;11.70;3.38;;;0.50;99.90;;;;;;6161104;23;20021;-81
2021/12/07 23:14:33;;;;;;;6.50;3.17;;;0.50;99.90;;;;;;6181858;23;20393;-80
2021/12/07 23:17:23;;;;;;;6.50;3.83;;;0.50;99.90;;;;;;6161325;23;20351;-80
2021/12/07 23:20:16;;;;;;;7.10;3.25;;;0.50;99.90;;;;;;6181943;23;20033;-81
2021/12/07 23:23:04;;;;;;;7.38;3.70;;;0.50;99.90;;;;;;6181952;23;20081;-81
2021/12/07 23:25:54;;;;;;;9.70;3.60;;;0.60;99.90;;;;;;6160352;23;20036;-81
2021/12/07 23:28:43;;;;;;;9.32;4.15;;;0.60;99.90;;;;;;6161239;23;20031;-79
2021/12/07 23:31:31;;;;;;;6.82;4.03;;;0.60;99.90;;;;;;6160888;23;20033;-79
2021/12/07 23:34:19;;;;;;;6.43;3.42;;;0.60;99.90;;;;;;6140511;23;20075;-81
2021/12/07 23:37:09;;;;;;;7.35;3.30;;;0.60;99.90;;;;;;6160645;23;20052;-80
2021/12/07 23:39:56;;;;;;;8.65;4.13;;;0.60;99.90;;;;;;6140686;23;20043;-79
2021/12/07 23:42:45;;;;;;;12.20;3.90;;;0.60;99.90;;;;;;6139907;23;20047;-80
2021/12/07 23:45:35;;;;;;;6.18;3.70;;;0.60;99.90;;;;;;6182964;23;20033;-81
2021/12/07 23:48:22;;;;;;;9.20;4.05;;;0.60;99.90;;;;;;6180961;23;20031;-81
2021/12/07 23:51:15;;;;;;;8.90;3.88;;;0.60;99.90;;;;;;6181044;23;20455;-79
2021/12/07 23:54:04;;;;;;;7.28;3.47;;;0.60;99.90;;;;;;6161454;23;20025;-81
2021/12/07 23:56:54;;;;;;;6.88;3.85;;;0.60;99.90;;;;;;6119713;23;20087;-81
2021/12/07 23:59:42;;;;;;;4.80;3.30;;;0.70;99.90;;;;;;6122501;23;20118;-81
